Sunrise, Florida
Current Conditions -  °F | °C
As of 6:53 AM on Thursday 23 Oct 2014 (Local Time) from KFXE Reporting Station
Light Rain Light Rain  
Wind Chill: 75°   Ceiling: 7000
Heat Index: 75°   Visibility: 8mi
Dew Point: 72°   Wind: 5mph
Humidity: 90%   Direction: 10°N
Pressure: 29.9"   Gusts: NA
Location:  26.15°N, 80.33°W
Report Text: KFXE 231053Z 01004KT 8SM -RA FEW009 SCT055 BKN070 24/22 A2990 RMK AO2 SLP127 P0001 T02390222
Loading
Personal Weather Stations






























Interactive Weather Map
Tropical Storm Tracking
New forecast layout! Learn more

10-Day Weather Forecast

Advertisements
Track Severe Weather on mobile